Terminal Aerodrome Forecast
Issued by NWS

Home | Current Version | Previous Version | Text Only | Print | Product List | Glossary On
Versions: 1 2 3 4 5 6 7 8 9 10 11 12 13 14
000
FTUS44 KLIX 172130 AAA
TAFGPT
TAF AMD
KGPT 172130Z 1722/1818 00000KT P6SM VCSH OVC040
      TEMPO 1722/1724 2SM BR SCT009 BKN020
     FM180200 15006KT 1/2SM FG VCSH OVC003
     FM181600 07006KT 1 1/2SM SHRA BR OVC003
     FM181700 07006KT 3SM SHRA BR OVC008=

USA.gov is the U.S. government's official web portal to all federal, state and local government web resources and services.